createdAt,value
2023-04-01T00:00:39.484Z,1.50
2023-04-01T00:02:01.916Z,1.75
2023-04-01T00:03:26.579Z,1.48
2023-04-01T00:04:50.281Z,1.70
2023-04-01T00:06:15.596Z,1.50
2023-04-01T00:07:39.088Z,1.38
2023-04-01T00:09:02.545Z,1.50
2023-04-01T00:10:24.947Z,1.40
2023-04-01T00:11:48.376Z,1.20
2023-04-01T00:13:12.529Z,1.00
2023-04-01T00:14:37.989Z,1.30
2023-04-01T00:16:00.559Z,1.40
2023-04-01T00:17:24.797Z,1.10
2023-04-01T00:18:48.286Z,1.40
2023-04-01T00:20:13.434Z,1.75
2023-04-01T00:21:37.738Z,1.35
2023-04-01T00:23:00.332Z,1.50
2023-04-01T00:24:23.940Z,1.73
2023-04-01T00:25:49.046Z,1.80
2023-04-01T00:27:12.648Z,1.10
2023-04-01T00:28:38.903Z,1.40
2023-04-01T00:30:02.040Z,1.23
2023-04-01T00:31:25.559Z,2.00
2023-04-01T00:32:48.007Z,1.55
2023-04-01T00:34:12.366Z,1.45
2023-04-01T00:35:35.694Z,1.10
2023-04-01T00:36:59.080Z,1.58
2023-04-01T00:38:22.776Z,1.30
2023-04-01T00:39:46.192Z,1.23
2023-04-01T00:41:09.618Z,1.63
2023-04-01T00:42:33.545Z,1.20
2023-04-01T00:44:19.273Z,1.50
2023-04-01T00:45:45.140Z,1.85
2023-04-01T00:47:08.996Z,1.27
2023-04-01T00:48:35.355Z,1.60
2023-04-01T00:49:57.765Z,1.60
2023-04-01T00:51:26.033Z,1.48
2023-04-01T00:52:48.453Z,1.60
2023-04-01T00:54:12.615Z,1.25
2023-04-01T00:55:38.493Z,1.60
2023-04-01T00:57:03.706Z,1.30
2023-04-01T00:58:28.612Z,1.50
2023-04-01T00:59:55.870Z,1.20
2023-04-01T01:01:19.690Z,1.70
2023-04-01T01:02:43.860Z,1.40
2023-04-01T01:04:07.395Z,1.80
2023-04-01T01:05:46.297Z,1.35
2023-04-01T01:07:21.851Z,1.40
2023-04-01T01:08:58.200Z,1.30
2023-04-01T01:10:24.670Z,1.13
2023-04-01T01:11:59.688Z,1.50
2023-04-01T01:13:28.724Z,1.52
2023-04-01T01:14:56.924Z,1.45
2023-04-01T01:16:26.812Z,1.02
2023-04-01T01:17:58.098Z,1.35
2023-04-01T01:19:37.371Z,1.63
2023-04-01T01:21:35.384Z,0.95
2023-04-01T01:23:19.924Z,0.90
2023-04-01T01:24:56.896Z,1.15
2023-04-01T01:26:38.888Z,0.90
2023-04-01T01:28:19.720Z,1.10
2023-04-01T01:30:19.896Z,1.20
2023-04-01T01:31:48.711Z,1.20
2023-04-01T01:33:27.102Z,0.93
2023-04-01T01:34:53.880Z,1.00
2023-04-01T01:36:19.923Z,0.88
2023-04-01T01:37:43.864Z,0.82
2023-04-01T01:39:08.612Z,1.23
2023-04-01T01:40:33.555Z,1.00
2023-04-01T01:41:58.370Z,1.25
2023-04-01T01:43:25.368Z,1.02
2023-04-01T01:44:48.988Z,1.05
2023-04-01T01:46:14.383Z,1.30
2023-04-01T01:47:37.897Z,1.23
2023-04-01T01:49:03.796Z,1.00
2023-04-01T01:50:27.330Z,0.98
2023-04-01T01:51:52.090Z,1.27
2023-04-01T01:53:15.246Z,1.10
2023-04-01T01:54:39.053Z,1.33
2023-04-01T01:56:02.508Z,1.00
2023-04-01T01:57:27.540Z,1.05
2023-04-01T01:58:53.329Z,1.10
2023-04-01T02:00:16.966Z,0.93
2023-04-01T02:01:44.062Z,1.35
2023-04-01T02:03:07.885Z,1.20
2023-04-01T02:04:31.529Z,1.00
2023-04-01T02:05:57.252Z,1.67
2023-04-01T02:07:26.058Z,1.30
2023-04-01T02:08:52.741Z,1.42
2023-04-01T02:10:15.506Z,1.20
2023-04-01T02:11:43.330Z,1.27
2023-04-01T02:13:09.281Z,1.40
2023-04-01T02:14:38.265Z,0.82
2023-04-01T02:16:05.865Z,1.63
2023-04-01T02:17:31.467Z,1.13
2023-04-01T02:18:55.534Z,1.50
2023-04-01T02:20:22.010Z,1.30
2023-04-01T02:21:46.185Z,1.50
2023-04-01T02:23:11.843Z,1.40
2023-04-01T02:24:37.169Z,1.20
2023-04-01T02:26:00.627Z,1.65
2023-04-01T02:27:27.124Z,1.27
2023-04-01T02:28:51.039Z,1.40
2023-04-01T02:30:14.445Z,1.35
2023-04-01T02:31:38.040Z,1.10
2023-04-01T02:33:01.068Z,1.30
2023-04-01T02:34:26.642Z,1.83
2023-04-01T02:35:49.266Z,1.13
2023-04-01T02:37:13.974Z,1.02
2023-04-01T02:38:40.425Z,1.20
2023-04-01T02:40:04.904Z,1.55
2023-04-01T02:41:28.258Z,1.35
2023-04-01T02:42:50.922Z,1.67
2023-04-01T02:44:16.109Z,1.27
2023-04-01T02:45:39.323Z,1.40
2023-04-01T02:47:02.957Z,1.50
2023-04-01T02:48:26.465Z,1.75
2023-04-01T02:49:48.914Z,1.67
2023-04-01T02:51:13.132Z,1.65
2023-04-01T02:52:36.629Z,1.80
2023-04-01T02:54:01.373Z,1.60
2023-04-01T02:55:24.882Z,1.50
2023-04-01T02:56:48.219Z,1.52
2023-04-01T02:58:11.605Z,1.65
2023-04-01T02:59:35.187Z,2.10
2023-04-01T03:00:58.544Z,1.60
2023-04-01T03:02:21.409Z,1.60
2023-04-01T03:03:44.813Z,1.60
2023-04-01T03:05:08.202Z,1.40
2023-04-01T03:06:31.926Z,1.50
2023-04-01T03:07:54.370Z,1.98
2023-04-01T03:09:19.111Z,1.92
2023-04-01T03:10:41.517Z,1.48
2023-04-01T03:12:04.992Z,1.60
2023-04-01T03:13:29.229Z,1.40
2023-04-01T03:14:51.668Z,1.58
2023-04-01T03:16:15.229Z,2.00
2023-04-01T03:17:38.676Z,1.75
2023-04-01T03:19:03.150Z,2.63
2023-04-01T03:20:34.419Z,2.15
2023-04-01T03:21:57.029Z,1.52
2023-04-01T03:23:22.071Z,1.50
2023-04-01T03:24:46.849Z,1.60
2023-04-01T03:26:10.232Z,1.90
2023-04-01T03:27:33.623Z,1.80
2023-04-01T03:28:57.083Z,1.60
2023-04-01T03:30:20.748Z,1.67
2023-04-01T03:31:43.290Z,1.65
2023-04-01T03:33:06.775Z,1.92
2023-04-01T03:34:29.280Z,1.88
2023-04-01T03:35:53.367Z,1.98
2023-04-01T03:37:17.300Z,1.55
2023-04-01T03:38:40.927Z,1.52
2023-04-01T03:40:05.952Z,1.70
2023-04-01T03:41:30.239Z,1.48
2023-04-01T03:42:53.649Z,1.50
2023-04-01T03:44:16.097Z,1.10
2023-04-01T03:45:45.390Z,1.83
2023-04-01T03:47:10.861Z,2.22
2023-04-01T03:48:34.255Z,1.70
2023-04-01T03:49:57.659Z,1.77
2023-04-01T03:51:21.036Z,1.50
2023-04-01T03:52:44.851Z,1.50
2023-04-01T03:54:08.261Z,2.15
2023-04-01T03:55:32.338Z,1.55
2023-04-01T03:56:56.067Z,1.73
2023-04-01T03:58:19.737Z,1.40
2023-04-01T03:59:43.103Z,1.67
2023-04-01T04:01:15.429Z,1.50
2023-04-01T04:02:38.861Z,1.92
2023-04-01T04:04:02.302Z,1.73
2023-04-01T04:05:25.991Z,1.77
2023-04-01T04:06:49.375Z,1.90
2023-04-01T04:08:12.753Z,1.77
2023-04-01T04:09:36.283Z,1.38
2023-04-01T04:11:00.217Z,1.83
2023-04-01T04:12:23.630Z,1.92
2023-04-01T04:13:48.707Z,1.42
2023-04-01T04:15:12.598Z,1.80
2023-04-01T04:16:38.490Z,1.73
2023-04-01T04:18:01.037Z,1.50
2023-04-01T04:19:24.454Z,1.30
2023-04-01T04:20:50.149Z,1.67
2023-04-01T04:22:13.513Z,1.65
2023-04-01T04:23:36.931Z,1.55
2023-04-01T04:25:00.385Z,1.45
2023-04-01T04:26:25.222Z,1.45
2023-04-01T04:27:47.667Z,1.50
2023-04-01T04:29:11.078Z,1.25
2023-04-01T04:30:33.522Z,1.45
2023-04-01T04:31:58.007Z,1.50
2023-04-01T04:33:20.699Z,1.02
2023-04-01T04:34:44.086Z,1.63
2023-04-01T04:36:07.226Z,1.52
2023-04-01T04:37:30.699Z,1.15
2023-04-01T04:38:54.085Z,1.40
2023-04-01T04:40:17.628Z,1.55
2023-04-01T04:41:43.423Z,1.33
2023-04-01T04:43:05.994Z,1.48
2023-04-01T04:44:29.364Z,1.20
2023-04-01T04:45:51.812Z,1.60
2023-04-01T04:47:15.411Z,1.42
2023-04-01T04:48:38.741Z,1.70
2023-04-01T04:50:02.184Z,1.60
2023-04-01T04:51:26.176Z,1.30
2023-04-01T04:52:48.553Z,1.95
2023-04-01T04:54:15.042Z,1.30
2023-04-01T04:55:37.426Z,1.52
2023-04-01T04:57:02.379Z,1.50
2023-04-01T04:58:24.799Z,1.40
2023-04-01T04:59:48.963Z,1.52
2023-04-01T05:01:14.295Z,1.70
2023-04-01T05:02:36.876Z,1.95
2023-04-01T05:04:00.364Z,1.35
2023-04-01T05:05:22.792Z,1.73
2023-04-01T05:06:46.604Z,2.20
2023-04-01T05:08:10.016Z,1.63
2023-04-01T05:09:34.133Z,1.63
2023-04-01T05:10:59.756Z,1.30
2023-04-01T05:12:24.544Z,1.85
2023-04-01T05:13:48.676Z,1.40
2023-04-01T05:15:17.784Z,1.65
2023-04-01T05:16:41.861Z,1.83
2023-04-01T05:18:05.467Z,1.60
2023-04-01T05:19:27.987Z,2.08
2023-04-01T05:20:52.391Z,1.73
2023-04-01T05:22:15.595Z,1.70
2023-04-01T05:23:39.081Z,1.40
2023-04-01T05:25:02.609Z,1.75
2023-04-01T05:26:26.053Z,1.63
2023-04-01T05:27:50.865Z,1.88
2023-04-01T05:29:13.286Z,2.00
2023-04-01T05:30:36.713Z,1.73
2023-04-01T05:31:59.163Z,1.80
2023-04-01T05:33:22.571Z,1.75
2023-04-01T05:34:45.385Z,1.70
2023-04-01T05:36:10.531Z,2.03
2023-04-01T05:37:35.416Z,2.05
2023-04-01T05:38:58.997Z,1.90
2023-04-01T05:40:21.542Z,1.58
2023-04-01T05:41:45.980Z,2.00
2023-04-01T05:43:10.699Z,1.50
2023-04-01T05:44:33.464Z,1.90
2023-04-01T05:45:56.882Z,2.50
2023-04-01T05:47:20.327Z,1.73
2023-04-01T05:48:43.747Z,1.85
2023-04-01T05:50:06.664Z,2.10
2023-04-01T05:51:30.031Z,1.50
2023-04-01T05:52:53.447Z,1.73
2023-04-01T05:54:15.875Z,2.20
2023-04-01T05:55:40.981Z,2.08
2023-04-01T05:57:04.581Z,2.10
2023-04-01T05:58:37.467Z,1.95
2023-04-01T05:59:59.927Z,2.15
2023-04-01T06:01:23.621Z,1.92
2023-04-01T06:02:47.440Z,1.92
2023-04-01T06:04:14.720Z,1.70
2023-04-01T06:05:42.306Z,1.35
2023-04-01T06:07:13.938Z,1.55
2023-04-01T06:08:37.380Z,1.77
2023-04-01T06:10:01.267Z,1.73
2023-04-01T06:11:34.543Z,1.90
2023-04-01T06:13:02.963Z,1.95
2023-04-01T06:14:36.038Z,1.42
2023-04-01T06:16:04.981Z,1.55
2023-04-01T06:17:35.130Z,2.10
2023-04-01T06:19:09.860Z,2.42
2023-04-01T06:20:44.353Z,1.85
2023-04-01T06:22:31.613Z,2.30
2023-04-01T06:24:02.172Z,2.22
2023-04-01T06:25:45.855Z,1.80
2023-04-01T06:27:18.511Z,2.15
2023-04-01T06:29:05.423Z,1.85
2023-04-01T06:30:42.998Z,2.60
2023-04-01T06:32:42.806Z,2.15
2023-04-01T06:34:22.982Z,1.75
2023-04-01T06:36:07.581Z,2.63
2023-04-01T06:38:05.576Z,1.77
2023-04-01T06:39:37.721Z,2.75
2023-04-01T06:41:27.978Z,2.53
2023-04-01T06:43:09.697Z,1.95
2023-04-01T06:44:40.527Z,2.47
2023-04-01T06:46:10.417Z,2.47
2023-04-01T06:47:45.463Z,2.15
2023-04-01T06:49:29.691Z,2.25
2023-04-01T06:50:59.160Z,1.90
2023-04-01T06:52:27.527Z,1.90
2023-04-01T06:53:58.834Z,1.80
2023-04-01T06:55:30.281Z,1.83
2023-04-01T06:56:58.276Z,1.65
2023-04-01T06:58:23.144Z,2.22
2023-04-01T06:59:46.993Z,1.98
2023-04-01T07:01:16.320Z,2.35
2023-04-01T07:02:43.778Z,2.03
2023-04-01T07:04:12.100Z,1.73
2023-04-01T07:05:36.599Z,1.70
2023-04-01T07:07:01.982Z,1.75
2023-04-01T07:08:27.925Z,2.08
2023-04-01T07:09:53.327Z,1.42
2023-04-01T07:11:23.708Z,1.95
2023-04-01T07:12:51.246Z,1.70
2023-04-01T07:14:21.850Z,1.63
2023-04-01T07:15:48.275Z,1.42
2023-04-01T07:17:17.541Z,1.90
2023-04-01T07:18:45.229Z,1.60
2023-04-01T07:20:14.359Z,1.75
2023-04-01T07:21:41.493Z,1.38
2023-04-01T07:23:06.842Z,1.42
2023-04-01T07:24:35.996Z,1.60
2023-04-01T07:26:03.247Z,1.38
2023-04-01T07:27:26.901Z,1.90
2023-04-01T07:28:52.367Z,1.58
2023-04-01T07:30:18.620Z,1.38
2023-04-01T07:31:53.467Z,1.55
2023-04-01T07:33:21.928Z,1.80
2023-04-01T07:34:54.156Z,1.98
2023-04-01T07:36:22.690Z,1.75
2023-04-01T07:37:53.565Z,1.58
2023-04-01T07:39:29.006Z,1.60
2023-04-01T07:40:57.783Z,1.35
2023-04-01T07:42:27.547Z,0.90
2023-04-01T07:43:59.426Z,1.40
2023-04-01T07:45:27.269Z,1.08
2023-04-01T07:47:01.850Z,1.33
2023-04-01T07:48:32.286Z,1.42
2023-04-01T07:50:04.642Z,1.13
2023-04-01T07:51:34.062Z,1.33
2023-04-01T07:53:06.199Z,1.23
2023-04-01T07:54:34.687Z,1.13
2023-04-01T07:56:03.599Z,1.30
2023-04-01T07:57:32.496Z,1.83
2023-04-01T07:59:01.294Z,1.40
2023-04-01T08:00:28.881Z,1.55
2023-04-01T08:01:57.055Z,1.20
2023-04-01T08:03:35.983Z,1.40
2023-04-01T08:05:06.948Z,1.20
2023-04-01T08:06:35.413Z,1.08
2023-04-01T08:08:07.313Z,1.35
2023-04-01T08:09:38.506Z,1.20
2023-04-01T08:11:07.996Z,1.30
2023-04-01T08:12:41.360Z,1.05
2023-04-01T08:14:10.851Z,0.85
2023-04-01T08:15:39.884Z,1.23
2023-04-01T08:17:06.141Z,1.10
2023-04-01T08:18:39.832Z,6.72
2023-04-01T08:20:14.075Z,2.45
2023-04-01T08:21:43.452Z,2.22
2023-04-01T08:23:12.239Z,1.83
2023-04-01T08:24:47.712Z,1.75
2023-04-01T08:26:15.468Z,1.05
2023-04-01T08:27:41.557Z,1.30
2023-04-01T08:29:08.417Z,1.23
2023-04-01T08:30:39.762Z,1.23
2023-04-01T08:32:08.280Z,2.70
2023-04-01T08:33:32.876Z,2.72
2023-04-01T08:35:08.668Z,1.25
2023-04-01T08:36:35.076Z,0.85
2023-04-01T08:38:01.816Z,1.15
2023-04-01T08:39:32.298Z,1.63
2023-04-01T08:41:18.477Z,1.42
2023-04-01T08:42:52.370Z,1.92
2023-04-01T08:44:41.554Z,1.27
2023-04-01T08:46:25.090Z,1.75
2023-04-01T08:48:10.255Z,1.00
2023-04-01T08:49:49.562Z,1.20
2023-04-01T08:51:29.065Z,1.60
2023-04-01T08:53:00.531Z,1.25
2023-04-01T08:54:36.845Z,1.20
2023-04-01T08:56:09.157Z,1.08
2023-04-01T08:57:41.629Z,1.67
2023-04-01T08:59:29.534Z,1.10
2023-04-01T09:00:56.539Z,1.38
2023-04-01T09:02:35.197Z,1.27
2023-04-01T09:04:25.818Z,1.52
2023-04-01T09:06:38.820Z,1.42
2023-04-01T09:08:10.658Z,1.67
2023-04-01T09:09:57.102Z,1.90
2023-04-01T09:11:30.434Z,1.35
2023-04-01T09:13:12.320Z,2.03
2023-04-01T09:14:57.788Z,1.85
2023-04-01T09:16:31.672Z,2.28
2023-04-01T09:18:38.432Z,2.00
2023-04-01T09:20:21.530Z,3.17
2023-04-01T09:22:12.428Z,2.80
2023-04-01T09:23:50.181Z,2.95
2023-04-01T09:25:41.087Z,2.70
2023-04-01T09:27:10.391Z,2.70
2023-04-01T09:28:40.364Z,2.70
2023-04-01T09:30:34.029Z,2.92
2023-04-01T09:32:13.586Z,3.55
2023-04-01T09:34:08.017Z,3.60
2023-04-01T09:35:41.903Z,3.03
2023-04-01T09:37:30.179Z,3.15
2023-04-01T09:38:59.498Z,3.60
2023-04-01T09:40:27.729Z,3.95
2023-04-01T09:42:08.884Z,3.88
2023-04-01T09:43:56.307Z,3.78
2023-04-01T09:45:28.857Z,3.15
2023-04-01T09:47:03.497Z,3.15
2023-04-01T09:48:55.876Z,2.88
2023-04-01T09:50:32.555Z,3.40
2023-04-01T09:52:04.015Z,3.40
2023-04-01T09:53:51.040Z,3.72
2023-04-01T09:55:49.396Z,2.95
2023-04-01T09:57:48.418Z,3.00
2023-04-01T10:00:11.541Z,3.05
2023-04-01T10:01:47.982Z,3.03
2023-04-01T10:03:34.468Z,2.63
2023-04-01T10:05:37.135Z,3.47
2023-04-01T10:07:17.810Z,3.13
2023-04-01T10:09:18.072Z,4.35
2023-04-01T10:11:06.214Z,4.47
2023-04-01T10:13:04.715Z,4.65
2023-04-01T10:14:54.131Z,5.38
2023-04-01T10:16:35.165Z,4.55
2023-04-01T10:18:31.572Z,4.47
2023-04-01T10:20:22.730Z,4.45
2023-04-01T10:22:15.270Z,4.68
2023-04-01T10:24:25.074Z,4.20
2023-04-01T10:26:19.129Z,4.20
2023-04-01T10:28:11.257Z,4.85
2023-04-01T10:30:32.001Z,4.45
2023-04-01T10:32:16.843Z,3.63
2023-04-01T10:34:07.260Z,3.53
2023-04-01T10:36:00.260Z,4.28
2023-04-01T10:37:41.972Z,3.92
2023-04-01T10:39:41.323Z,4.60
2023-04-01T10:41:41.873Z,4.15
2023-04-01T10:43:22.881Z,3.72
2023-04-01T10:45:34.964Z,4.72
2023-04-01T10:47:28.674Z,3.63
2023-04-01T10:49:12.832Z,2.60
2023-04-01T10:51:03.116Z,3.08
2023-04-01T10:53:02.681Z,3.60
2023-04-01T10:54:50.239Z,2.45
2023-04-01T10:56:39.241Z,3.45
2023-04-01T10:58:36.947Z,3.78
2023-04-01T11:00:25.853Z,3.75
2023-04-01T11:02:14.795Z,3.88
2023-04-01T11:04:10.706Z,2.95
2023-04-01T11:06:00.848Z,3.03
2023-04-01T11:08:04.770Z,3.15
2023-04-01T11:10:22.638Z,2.80
2023-04-01T11:12:21.312Z,1.25
2023-04-01T11:14:22.979Z,2.00
2023-04-01T11:16:10.534Z,2.08
2023-04-01T11:18:27.175Z,3.05
2023-04-01T11:20:30.519Z,2.50
2023-04-01T11:22:27.353Z,3.42
2023-04-01T11:24:05.144Z,1.67
2023-04-01T11:25:44.860Z,2.30
2023-04-01T11:27:23.696Z,2.13
2023-04-01T11:29:17.684Z,3.10
2023-04-01T11:31:02.593Z,2.25
2023-04-01T11:32:38.902Z,2.58
2023-04-01T11:34:08.089Z,2.47
2023-04-01T11:35:59.266Z,2.25
2023-04-01T11:37:31.671Z,1.55
2023-04-01T11:39:05.342Z,1.45
2023-04-01T11:40:34.448Z,1.73
2023-04-01T11:42:06.042Z,1.27
2023-04-01T11:43:34.829Z,1.73
2023-04-01T11:45:14.386Z,2.10
2023-04-01T11:46:45.044Z,1.90
2023-04-01T11:48:38.438Z,2.03
2023-04-01T11:50:17.600Z,2.28
2023-04-01T11:51:59.177Z,2.47
2023-04-01T11:53:32.352Z,1.58
2023-04-01T11:55:08.762Z,2.13
2023-04-01T11:56:46.882Z,2.28
2023-04-01T11:58:24.381Z,1.80
2023-04-01T11:59:54.986Z,0.65
2023-04-01T12:01:38.650Z,1.55
2023-04-01T12:03:14.178Z,1.63
2023-04-01T12:04:58.088Z,1.35
2023-04-01T12:06:26.195Z,1.00
2023-04-01T12:08:15.280Z,1.20
2023-04-01T12:09:46.215Z,1.98
2023-04-01T12:11:18.650Z,1.75
2023-04-01T12:12:58.003Z,1.45
2023-04-01T12:14:28.994Z,1.70
2023-04-01T12:16:17.768Z,2.08
2023-04-01T12:17:47.980Z,1.83
2023-04-01T12:19:17.284Z,2.17
2023-04-01T12:20:49.903Z,1.25
2023-04-01T12:22:43.409Z,1.33
2023-04-01T12:24:38.767Z,1.38
2023-04-01T12:26:43.221Z,2.00
2023-04-01T12:28:16.479Z,1.33
2023-04-01T12:29:56.759Z,1.48
2023-04-01T12:31:29.743Z,1.25
2023-04-01T12:33:03.602Z,1.90
2023-04-01T12:34:40.354Z,1.30
2023-04-01T12:36:17.856Z,1.45
2023-04-01T12:37:47.252Z,1.83
2023-04-01T12:39:24.945Z,1.77
2023-04-01T12:41:01.237Z,1.95
2023-04-01T12:42:39.249Z,2.08
2023-04-01T12:44:30.652Z,2.47
2023-04-01T12:45:59.431Z,2.67
2023-04-01T12:47:54.230Z,2.30
2023-04-01T12:49:30.484Z,1.75
2023-04-01T12:51:30.966Z,1.73
2023-04-01T12:53:09.768Z,2.42
2023-04-01T12:55:00.711Z,2.25
2023-04-01T12:56:29.482Z,2.40
2023-04-01T12:58:37.080Z,2.40
2023-04-01T13:00:22.468Z,2.45
2023-04-01T13:01:55.894Z,2.95
2023-04-01T13:03:41.221Z,1.80
2023-04-01T13:05:22.452Z,2.03
2023-04-01T13:06:56.423Z,2.53
2023-04-01T13:08:37.889Z,2.35
2023-04-01T13:10:07.125Z,1.75
2023-04-01T13:11:42.507Z,2.70
2023-04-01T13:13:21.017Z,2.83
2023-04-01T13:15:21.400Z,2.15
2023-04-01T13:16:47.867Z,2.50
2023-04-01T13:18:20.836Z,2.17
2023-04-01T13:20:01.764Z,2.53
2023-04-01T13:21:35.681Z,2.90
2023-04-01T13:23:10.235Z,3.90
2023-04-01T13:24:42.164Z,4.57
2023-04-01T13:26:15.114Z,4.72
2023-04-01T13:27:41.360Z,4.28
2023-04-01T13:29:09.029Z,3.58
2023-04-01T13:30:37.183Z,4.78
2023-04-01T13:32:14.846Z,3.70
2023-04-01T13:33:43.991Z,5.07
2023-04-01T13:35:26.788Z,3.75
2023-04-01T13:36:59.167Z,3.90
2023-04-01T13:38:47.103Z,4.07
2023-04-01T13:40:27.000Z,4.22
2023-04-01T13:42:13.901Z,4.70
2023-04-01T13:43:39.216Z,3.22
2023-04-01T13:45:05.427Z,4.15
2023-04-01T13:46:57.064Z,3.47
2023-04-01T13:48:39.161Z,1.58
2023-04-01T13:50:11.096Z,2.72
2023-04-01T13:51:54.856Z,2.67
2023-04-01T13:53:41.445Z,3.72
2023-04-01T13:55:21.665Z,1.73
2023-04-01T13:56:53.144Z,2.65
2023-04-01T13:58:40.969Z,1.13
2023-04-01T14:00:27.813Z,2.30
2023-04-01T14:02:05.937Z,3.92
2023-04-01T14:03:52.493Z,2.53
2023-04-01T14:05:43.088Z,4.00
2023-04-01T14:07:32.131Z,3.60
2023-04-01T14:09:32.877Z,3.83
2023-04-01T14:11:05.887Z,3.90
2023-04-01T14:12:32.533Z,3.83
2023-04-01T14:14:04.744Z,2.53
2023-04-01T14:15:40.676Z,4.03
2023-04-01T14:17:16.585Z,3.65
2023-04-01T14:18:49.230Z,3.45
2023-04-01T14:20:28.047Z,2.45
2023-04-01T14:21:59.413Z,3.88
2023-04-01T14:23:43.582Z,2.83
2023-04-01T14:25:41.366Z,2.95
2023-04-01T14:27:32.193Z,3.10
2023-04-01T14:29:03.265Z,0.88
2023-04-01T14:30:50.733Z,2.17
2023-04-01T14:32:22.230Z,3.92
2023-04-01T14:33:51.192Z,3.50
2023-04-01T14:35:27.567Z,3.72
2023-04-01T14:37:05.287Z,2.17
2023-04-01T14:38:34.234Z,3.00
2023-04-01T14:40:32.654Z,3.72
2023-04-01T14:42:21.517Z,3.35
2023-04-01T14:43:54.798Z,4.03
2023-04-01T14:45:31.478Z,3.33
2023-04-01T14:47:19.177Z,3.83
2023-04-01T14:48:52.864Z,3.30
2023-04-01T14:50:18.685Z,3.58
2023-04-01T14:51:42.283Z,2.70
2023-04-01T14:53:15.384Z,3.00
2023-04-01T14:54:39.960Z,3.15
2023-04-01T14:56:03.947Z,2.42
2023-04-01T14:57:30.873Z,2.63
2023-04-01T14:59:00.490Z,3.70
2023-04-01T15:00:23.915Z,3.33
2023-04-01T15:01:53.562Z,2.13
2023-04-01T15:03:20.309Z,2.72
2023-04-01T15:04:57.469Z,1.75
2023-04-01T15:06:44.797Z,2.30
2023-04-01T15:08:11.958Z,1.58
2023-04-01T15:09:41.737Z,3.30
2023-04-01T15:11:28.462Z,1.65
2023-04-01T15:12:59.336Z,2.17
2023-04-01T15:14:32.304Z,3.38
2023-04-01T15:16:13.213Z,2.17
2023-04-01T15:17:47.099Z,2.95
2023-04-01T15:19:17.127Z,2.03
2023-04-01T15:21:17.922Z,3.00
2023-04-01T15:22:54.984Z,2.80
2023-04-01T15:24:23.851Z,3.20
2023-04-01T15:26:06.390Z,3.50
2023-04-01T15:27:43.145Z,3.40
2023-04-01T15:29:29.038Z,3.53
2023-04-01T15:30:57.812Z,1.40
2023-04-01T15:32:25.042Z,3.85
2023-04-01T15:33:56.329Z,1.58
2023-04-01T15:35:28.170Z,3.80
2023-04-01T15:36:58.408Z,3.22
2023-04-01T15:38:33.146Z,3.10
2023-04-01T15:40:02.384Z,2.67
2023-04-01T15:41:30.146Z,2.22
2023-04-01T15:43:13.028Z,1.70
2023-04-01T15:44:54.818Z,1.88
2023-04-01T15:46:29.366Z,3.17
2023-04-01T15:48:04.369Z,1.13
2023-04-01T15:49:33.920Z,1.65
2023-04-01T15:51:07.872Z,3.10
2023-04-01T15:52:40.587Z,2.70
2023-04-01T15:54:50.122Z,1.73
2023-04-01T15:56:24.322Z,1.63
2023-04-01T15:57:57.077Z,2.92
2023-04-01T15:59:33.793Z,1.85
2023-04-01T16:01:05.651Z,2.17
2023-04-01T16:02:34.270Z,2.75
2023-04-01T16:04:02.031Z,1.95
2023-04-01T16:05:39.897Z,1.85
2023-04-01T16:07:11.741Z,1.35
2023-04-01T16:09:05.008Z,1.75
2023-04-01T16:10:55.132Z,1.92
2023-04-01T16:12:22.820Z,0.68
2023-04-01T16:13:55.617Z,3.10
2023-04-01T16:15:27.137Z,2.97
2023-04-01T16:17:00.627Z,3.15
2023-04-01T16:18:48.042Z,2.13
2023-04-01T16:20:21.574Z,2.80
2023-04-01T16:21:50.335Z,3.38
2023-04-01T16:23:19.584Z,2.95
2023-04-01T16:24:49.365Z,4.18
2023-04-01T16:26:19.738Z,4.03
2023-04-01T16:27:46.470Z,3.63
2023-04-01T16:29:13.692Z,3.65
2023-04-01T16:30:39.439Z,2.70
2023-04-01T16:32:22.446Z,3.20
2023-04-01T16:33:51.830Z,1.70
2023-04-01T16:35:32.597Z,3.65
2023-04-01T16:37:01.899Z,2.55
2023-04-01T16:38:27.457Z,2.53
2023-04-01T16:39:55.954Z,1.65
2023-04-01T16:41:21.244Z,1.48
2023-04-01T16:42:48.410Z,2.75
2023-04-01T16:44:20.347Z,2.50
2023-04-01T16:45:49.352Z,2.75
2023-04-01T16:47:16.325Z,1.23
2023-04-01T16:48:55.115Z,1.83
2023-04-01T16:50:24.224Z,1.77
2023-04-01T16:51:50.961Z,2.17
2023-04-01T16:53:19.988Z,2.53
2023-04-01T16:54:46.791Z,1.67
2023-04-01T16:56:14.240Z,2.47
2023-04-01T16:57:47.472Z,2.60
2023-04-01T16:59:17.595Z,2.25
2023-04-01T17:00:43.548Z,1.98
2023-04-01T17:02:14.775Z,1.55
2023-04-01T17:03:41.968Z,1.20
2023-04-01T17:05:07.825Z,1.90
2023-04-01T17:06:36.389Z,2.10
2023-04-01T17:08:07.467Z,2.60
2023-04-01T17:09:44.377Z,2.33
2023-04-01T17:11:14.199Z,2.55
2023-04-01T17:12:42.280Z,2.65
2023-04-01T17:14:14.451Z,2.70
2023-04-01T17:15:40.487Z,2.78
2023-04-01T17:17:22.234Z,2.50
2023-04-01T17:18:51.725Z,2.17
2023-04-01T17:20:22.361Z,2.28
2023-04-01T17:22:06.904Z,2.05
2023-04-01T17:23:32.587Z,2.40
2023-04-01T17:25:07.213Z,2.17
2023-04-01T17:26:37.334Z,0.75
2023-04-01T17:28:06.113Z,0.82
2023-04-01T17:29:36.337Z,1.58
2023-04-01T17:31:09.271Z,2.00
2023-04-01T17:32:46.563Z,1.73
2023-04-01T17:34:32.687Z,2.95
2023-04-01T17:36:00.821Z,2.22
2023-04-01T17:37:33.135Z,2.50
2023-04-01T17:39:13.470Z,2.90
2023-04-01T17:40:44.340Z,2.63
2023-04-01T17:42:11.289Z,2.72
2023-04-01T17:43:40.667Z,2.45
2023-04-01T17:45:07.794Z,1.85
2023-04-01T17:46:40.644Z,2.67
2023-04-01T17:48:10.775Z,1.70
2023-04-01T17:49:40.056Z,2.75
2023-04-01T17:51:13.989Z,2.72
2023-04-01T17:52:41.083Z,1.33
2023-04-01T17:54:13.226Z,2.83
2023-04-01T17:55:50.772Z,2.80
2023-04-01T17:57:32.850Z,3.25
2023-04-01T17:59:03.820Z,2.40
2023-04-01T18:00:42.216Z,3.20
2023-04-01T18:02:25.283Z,2.83
2023-04-01T18:04:02.546Z,1.83
2023-04-01T18:05:49.260Z,2.72
2023-04-01T18:07:35.916Z,2.60
2023-04-01T18:09:01.892Z,2.53
2023-04-01T18:10:30.876Z,2.90
2023-04-01T18:12:01.572Z,2.03
2023-04-01T18:13:48.020Z,2.38
2023-04-01T18:15:21.641Z,3.05
2023-04-01T18:16:54.873Z,3.42
2023-04-01T18:18:34.753Z,2.55
2023-04-01T18:20:11.232Z,2.08
2023-04-01T18:21:42.561Z,1.90
2023-04-01T18:23:14.601Z,3.13
2023-04-01T18:24:45.332Z,2.03
2023-04-01T18:26:15.400Z,1.40
2023-04-01T18:27:41.337Z,2.88
2023-04-01T18:29:13.352Z,1.83
2023-04-01T18:30:37.596Z,2.55
2023-04-01T18:32:15.771Z,2.35
2023-04-01T18:33:50.036Z,1.30
2023-04-01T18:35:23.510Z,1.50
2023-04-01T18:36:49.911Z,2.08
2023-04-01T18:38:16.051Z,2.33
2023-04-01T18:39:42.718Z,1.45
2023-04-01T18:41:15.799Z,2.80
2023-04-01T18:42:45.780Z,2.78
2023-04-01T18:44:24.731Z,2.42
2023-04-01T18:45:52.680Z,2.50
2023-04-01T18:47:25.830Z,1.40
2023-04-01T18:48:57.160Z,2.13
2023-04-01T18:50:26.884Z,2.40
2023-04-01T18:51:54.868Z,1.90
2023-04-01T18:53:24.464Z,2.55
2023-04-01T18:55:12.402Z,1.90
2023-04-01T18:56:39.611Z,1.85
2023-04-01T18:58:19.565Z,2.08
2023-04-01T18:59:45.398Z,2.15
2023-04-01T19:01:20.614Z,1.60
2023-04-01T19:02:47.188Z,1.38
2023-04-01T19:04:21.996Z,1.30
2023-04-01T19:05:49.299Z,0.88
2023-04-01T19:07:44.012Z,2.20
2023-04-01T19:09:23.256Z,2.25
2023-04-01T19:10:50.895Z,1.95
2023-04-01T19:12:32.008Z,1.73
2023-04-01T19:14:00.146Z,2.67
2023-04-01T19:15:32.052Z,1.67
2023-04-01T19:17:02.975Z,3.42
2023-04-01T19:18:47.771Z,3.03
2023-04-01T19:20:19.167Z,3.60
2023-04-01T19:21:47.779Z,3.03
2023-04-01T19:23:41.279Z,2.58
2023-04-01T19:25:32.945Z,3.00
2023-04-01T19:27:01.065Z,1.20
2023-04-01T19:28:32.685Z,2.72
2023-04-01T19:30:05.008Z,2.15
2023-04-01T19:31:41.141Z,1.05
2023-04-01T19:33:16.613Z,2.78
2023-04-01T19:34:50.319Z,2.83
2023-04-01T19:36:18.255Z,3.45
2023-04-01T19:37:46.405Z,3.10
2023-04-01T19:39:23.172Z,2.55
2023-04-01T19:40:54.844Z,3.72
2023-04-01T19:42:22.112Z,3.78
2023-04-01T19:43:52.728Z,3.40
2023-04-01T19:45:27.187Z,3.65
2023-04-01T19:46:54.071Z,3.38
2023-04-01T19:48:34.292Z,3.55
2023-04-01T19:50:06.448Z,1.45
2023-04-01T19:51:34.097Z,2.90
2023-04-01T19:53:02.359Z,3.50
2023-04-01T19:54:32.752Z,1.85
2023-04-01T19:56:01.882Z,1.80
2023-04-01T19:57:31.569Z,3.80
2023-04-01T19:58:58.826Z,3.17
2023-04-01T20:00:26.621Z,2.75
2023-04-01T20:01:53.968Z,2.60
2023-04-01T20:03:32.355Z,2.55
2023-04-01T20:04:57.760Z,2.20
2023-04-01T20:06:33.044Z,3.40
2023-04-01T20:08:02.114Z,3.55
2023-04-01T20:09:38.771Z,3.13
2023-04-01T20:11:10.535Z,2.95
2023-04-01T20:12:43.509Z,1.88
2023-04-01T20:14:15.513Z,2.63
2023-04-01T20:15:42.080Z,2.28
2023-04-01T20:17:18.828Z,3.72
2023-04-01T20:18:46.517Z,4.22
2023-04-01T20:20:22.374Z,3.80
2023-04-01T20:21:48.825Z,1.48
2023-04-01T20:23:35.473Z,4.20
2023-04-01T20:25:00.657Z,3.45
2023-04-01T20:26:26.739Z,2.83
2023-04-01T20:27:53.084Z,2.92
2023-04-01T20:29:44.279Z,3.20
2023-04-01T20:31:26.060Z,4.03
2023-04-01T20:33:04.967Z,3.80
2023-04-01T20:34:43.617Z,4.57
2023-04-01T20:36:12.371Z,4.50
2023-04-01T20:37:40.078Z,1.75